Time;durP1;ratioP1;P1;durP2;ratioP2;P2;SDS_P1;SDS_P2;PMS_P1;PMS_P2;Temp;Humidity;BMP_temperature;BMP_pressure;BME280_temperature;BME280_humidity;BME280_pressure;Samples;Min_cycle;Max_cycle;Signal;HPM_P1;HPM_P2
2023/11/15 00:00:56;;;;;;;1008.57;907.00;;;10.70;99.90;;;;;;6155350;23;20421;-82
2023/11/15 00:03:25;;;;;;;1008.70;907.43;;;10.70;99.90;;;;;;6155411;23;20420;-83
2023/11/15 00:05:52;;;;;;;1017.90;916.17;;;10.70;99.90;;;;;;6155361;23;20781;-82
2023/11/15 00:08:19;;;;;;;1014.70;912.90;;;10.20;99.90;;;;;;6155193;23;20501;-81
2023/11/15 00:10:46;;;;;;;1005.63;904.43;;;10.20;99.90;;;;;;6155328;23;20791;-82
2023/11/15 00:13:12;;;;;;;1004.67;903.40;;;10.50;99.90;;;;;;6155502;23;20745;-81
2023/11/15 00:15:39;;;;;;;1005.57;902.67;;;10.30;99.90;;;;;;6154763;23;20416;-81
2023/11/15 00:18:06;;;;;;;1004.57;901.40;;;10.00;99.90;;;;;;6154591;23;20415;-81
2023/11/15 00:20:34;;;;;;;997.30;895.73;;;10.00;99.90;;;;;;6154889;23;20415;-81
2023/11/15 00:23:01;;;;;;;1006.57;903.50;;;9.90;99.90;;;;;;6154870;23;20495;-81
2023/11/15 00:25:28;;;;;;;1016.83;914.63;;;9.80;99.90;;;;;;6154853;23;20418;-80
2023/11/15 00:27:56;;;;;;;1024.20;920.47;;;9.80;99.90;;;;;;6154664;23;20489;-79
2023/11/15 00:30:23;;;;;;;1015.00;912.90;;;10.10;99.90;;;;;;6155171;23;20418;-80
2023/11/15 00:32:51;;;;;;;1020.77;916.73;;;10.20;99.90;;;;;;6155147;23;20434;-79
2023/11/15 00:35:18;;;;;;;1031.20;927.43;;;9.80;99.90;;;;;;6154663;23;20418;-77
2023/11/15 00:37:47;;;;;;;1022.40;919.47;;;9.80;99.90;;;;;;6154696;23;20406;-79
2023/11/15 00:40:15;;;;;;;1012.37;910.67;;;10.10;99.90;;;;;;6155141;23;20410;-77
2023/11/15 00:42:42;;;;;;;1005.63;905.00;;;10.00;99.90;;;;;;6155125;23;20773;-77
2023/11/15 00:45:11;;;;;;;1004.37;904.60;;;9.90;99.90;;;;;;6154634;23;20450;-76
2023/11/15 00:47:39;;;;;;;1006.20;907.50;;;10.10;99.90;;;;;;6154439;23;20442;-77
2023/11/15 00:50:07;;;;;;;1010.40;911.53;;;9.90;99.90;;;;;;6154531;23;20486;-76
2023/11/15 00:52:34;;;;;;;1015.37;916.50;;;10.00;99.90;;;;;;6154690;23;20931;-77
2023/11/15 00:55:03;;;;;;;1016.70;917.73;;;9.80;99.90;;;;;;6154397;23;20421;-76
2023/11/15 00:57:31;;;;;;;1023.80;923.13;;;9.80;99.90;;;;;;6154969;23;20774;-76
2023/11/15 00:59:57;;;;;;;1005.33;905.23;;;10.10;99.90;;;;;;6154430;23;20940;-82
2023/11/15 01:02:26;;;;;;;1101.20;999.87;;;10.10;99.90;;;;;;6154866;23;20463;-81
2023/11/15 01:04:54;;;;;;;1024.53;923.77;;;10.10;99.90;;;;;;6154603;23;20502;-82
2023/11/15 01:07:21;;;;;;;1032.40;931.00;;;10.10;99.90;;;;;;6154897;23;20522;-82
2023/11/15 01:09:50;;;;;;;1026.97;924.60;;;9.90;99.90;;;;;;6154512;23;20920;-83
2023/11/15 01:12:18;;;;;;;1022.47;919.87;;;9.90;99.90;;;;;;6154684;23;20411;-82
2023/11/15 01:14:45;;;;;;;1025.30;924.23;;;9.80;99.90;;;;;;6154845;23;20418;-82
2023/11/15 01:17:12;;;;;;;1023.33;921.67;;;9.80;99.90;;;;;;6154464;23;20411;-82
2023/11/15 01:19:39;;;;;;;1021.00;918.83;;;10.00;99.90;;;;;;6154910;23;20416;-82
2023/11/15 01:22:06;;;;;;;1012.07;911.37;;;10.00;99.90;;;;;;6154575;23;20916;-83
2023/11/15 01:24:33;;;;;;;1007.97;908.00;;;9.90;99.90;;;;;;6155003;23;20728;-82
2023/11/15 01:27:00;;;;;;;996.40;895.90;;;9.80;99.90;;;;;;6154731;23;20738;-82
2023/11/15 01:29:28;;;;;;;1020.53;919.20;;;10.00;99.90;;;;;;6154189;23;20414;-83
2023/11/15 01:31:56;;;;;;;1016.00;914.40;;;10.00;99.90;;;;;;6154542;23;20493;-82
2023/11/15 01:34:23;;;;;;;1013.67;912.90;;;9.90;99.90;;;;;;6154637;23;20420;-82
2023/11/15 01:36:50;;;;;;;1016.20;914.90;;;9.80;99.90;;;;;;6154537;23;20442;-81
2023/11/15 01:39:17;;;;;;;1016.50;916.00;;;9.80;99.90;;;;;;6154726;23;20764;-81
2023/11/15 01:41:48;;;;;;;1016.60;914.33;;;9.90;99.90;;;;;;6154352;23;20899;-82
2023/11/15 01:44:16;;;;;;;1014.17;911.27;;;9.90;99.90;;;;;;6154824;23;20430;-80
2023/11/15 01:46:47;;;;;;;1012.33;910.37;;;9.80;99.90;;;;;;6154718;23;20519;-81
2023/11/15 01:49:15;;;;;;;999.57;898.67;;;9.90;99.90;;;;;;6155718;23;20761;-81
2023/11/15 01:51:42;;;;;;;1001.37;900.00;;;9.90;99.90;;;;;;6156689;23;20412;-81
2023/11/15 01:54:11;;;;;;;995.80;894.00;;;9.90;99.90;;;;;;6156528;23;20412;-80
2023/11/15 01:56:39;;;;;;;1014.33;910.00;;;10.00;99.90;;;;;;6156033;23;21306;-80
2023/11/15 01:59:08;;;;;;;1022.17;918.40;;;10.00;99.90;;;;;;6156392;23;20413;-80
2023/11/15 02:01:36;;;;;;;1012.93;909.03;;;9.80;99.90;;;;;;6156617;23;20444;-79
2023/11/15 02:04:05;;;;;;;1018.20;912.53;;;10.00;99.90;;;;;;6156027;23;20419;-79
2023/11/15 02:06:35;;;;;;;1032.60;925.77;;;9.80;99.90;;;;;;6156349;23;20500;-78
2023/11/15 02:09:04;;;;;;;1035.33;927.93;;;9.90;99.90;;;;;;6155901;23;20416;-77
2023/11/15 02:11:31;;;;;;;1039.27;931.00;;;9.90;99.90;;;;;;6156025;23;20442;-79
2023/11/15 02:13:59;;;;;;;1042.80;932.67;;;9.90;99.90;;;;;;6156339;23;20418;-76
2023/11/15 02:16:26;;;;;;;1040.67;931.17;;;9.80;99.90;;;;;;6155925;23;20502;-77
2023/11/15 02:18:53;;;;;;;1043.27;932.73;;;9.90;99.90;;;;;;6156182;23;20412;-77
2023/11/15 02:21:22;;;;;;;1051.67;941.17;;;9.90;99.90;;;;;;6165659;23;20415;-77
2023/11/15 02:23:51;;;;;;;1048.43;938.43;;;10.00;99.90;;;;;;6155913;23;20893;-77
2023/11/15 02:26:19;;;;;;;1063.87;953.50;;;9.90;99.90;;;;;;6156231;23;20782;-76
2023/11/15 02:28:46;;;;;;;1083.93;972.73;;;10.00;99.90;;;;;;6155625;23;20444;-76
2023/11/15 02:31:13;;;;;;;1082.77;972.10;;;10.00;99.90;;;;;;6156194;23;20719;-76
2023/11/15 02:33:40;;;;;;;1095.30;983.70;;;10.00;99.90;;;;;;6156208;23;20415;-75
2023/11/15 02:36:08;;;;;;;1103.10;990.00;;;10.10;99.90;;;;;;6155686;23;20410;-75
2023/11/15 02:38:35;;;;;;;1111.30;999.33;;;10.10;99.90;;;;;;6155592;23;20440;-75
2023/11/15 02:41:04;;;;;;;1116.50;999.90;;;10.10;99.90;;;;;;6155813;23;20412;-75
2023/11/15 02:43:31;;;;;;;1124.20;999.90;;;10.20;99.90;;;;;;6156239;23;20471;-74
2023/11/15 02:45:58;;;;;;;1132.50;999.90;;;10.10;99.90;;;;;;6155986;23;20446;-75
2023/11/15 02:48:25;;;;;;;1140.93;999.90;;;10.20;99.90;;;;;;6155797;23;20466;-75
2023/11/15 02:50:52;;;;;;;1135.47;999.90;;;10.20;99.90;;;;;;6155992;23;20457;-75
2023/11/15 02:53:19;;;;;;;1143.70;999.90;;;10.20;99.90;;;;;;6156038;23;20490;-75
2023/11/15 02:55:46;;;;;;;1146.73;999.90;;;10.20;99.90;;;;;;6155486;23;20424;-75
2023/11/15 02:58:15;;;;;;;1150.73;999.90;;;10.20;99.90;;;;;;6155811;23;20417;-74
2023/11/15 03:00:42;;;;;;;1147.37;999.90;;;10.20;99.90;;;;;;6155430;23;20503;-75
2023/11/15 03:03:09;;;;;;;1154.20;999.90;;;10.30;99.90;;;;;;6155814;23;20413;-74
2023/11/15 03:05:36;;;;;;;1162.87;999.90;;;10.30;99.90;;;;;;6155497;23;20491;-75
2023/11/15 03:08:05;;;;;;;1164.40;999.90;;;10.30;99.90;;;;;;6155220;23;20451;-78
2023/11/15 03:10:33;;;;;;;1168.53;999.90;;;10.30;99.90;;;;;;6155910;23;20443;-78
2023/11/15 03:13:01;;;;;;;1179.87;999.90;;;10.30;99.90;;;;;;6155872;23;20496;-77
2023/11/15 03:15:29;;;;;;;1181.10;999.90;;;10.30;99.90;;;;;;6155425;23;20912;-78
2023/11/15 03:17:56;;;;;;;1173.53;999.90;;;10.40;99.90;;;;;;6155531;23;20421;-77
2023/11/15 03:20:23;;;;;;;1178.10;999.90;;;10.30;99.90;;;;;;6155801;23;20773;-77
2023/11/15 03:22:50;;;;;;;1178.43;999.90;;;10.30;99.90;;;;;;6155419;23;20420;-77
2023/11/15 03:25:17;;;;;;;1182.17;999.90;;;10.40;99.90;;;;;;6155705;23;20794;-77
2023/11/15 03:27:44;;;;;;;1185.67;999.90;;;10.40;99.90;;;;;;6155498;23;20441;-78
2023/11/15 03:30:13;;;;;;;1199.97;999.90;;;10.40;99.90;;;;;;6155449;23;20477;-77
2023/11/15 03:32:41;;;;;;;1194.87;999.90;;;10.50;99.90;;;;;;6155366;23;20410;-77
2023/11/15 03:35:09;;;;;;;1195.23;999.90;;;10.50;99.90;;;;;;6155616;23;20435;-77
2023/11/15 03:37:37;;;;;;;1196.77;999.90;;;10.50;99.90;;;;;;6155676;23;20743;-77
2023/11/15 03:40:07;;;;;;;1207.63;999.90;;;10.50;99.90;;;;;;6155157;23;20509;-77
2023/11/15 03:42:33;;;;;;;1220.63;999.90;;;10.50;99.90;;;;;;6155634;23;20420;-77
2023/11/15 03:45:00;;;;;;;1214.00;999.90;;;10.50;99.90;;;;;;6155328;23;20447;-77
2023/11/15 03:47:27;;;;;;;1217.23;999.90;;;10.50;99.90;;;;;;6154965;23;20437;-77
2023/11/15 03:49:55;;;;;;;1218.70;999.90;;;10.50;99.90;;;;;;6155008;23;20492;-77
2023/11/15 03:52:23;;;;;;;1223.70;999.90;;;10.60;99.90;;;;;;6155611;23;20463;-77
2023/11/15 03:54:50;;;;;;;1213.40;999.90;;;10.50;99.90;;;;;;6155258;23;20413;-77
2023/11/15 03:57:17;;;;;;;1216.40;999.90;;;10.60;99.90;;;;;;6155139;23;20904;-77
2023/11/15 03:59:44;;;;;;;1227.37;999.90;;;10.60;99.90;;;;;;6154771;23;20491;-77
2023/11/15 04:02:11;;;;;;;1225.70;999.90;;;10.60;99.90;;;;;;6155059;23;20420;-77
2023/11/15 04:04:38;;;;;;;1212.10;999.90;;;10.50;99.90;;;;;;6154871;23;20444;-77
2023/11/15 04:07:07;;;;;;;1215.27;999.90;;;10.60;99.90;;;;;;6154950;23;20441;-77
2023/11/15 04:09:34;;;;;;;1215.77;999.90;;;10.60;99.90;;;;;;6155195;23;20410;-77
2023/11/15 04:12:02;;;;;;;1218.47;999.90;;;10.60;99.90;;;;;;6155152;23;20411;-77
2023/11/15 04:14:29;;;;;;;1201.13;999.90;;;10.60;99.90;;;;;;6155063;23;20420;-77
2023/11/15 04:16:57;;;;;;;1115.53;999.90;;;10.60;99.90;;;;;;6155550;23;20451;-85
2023/11/15 04:19:24;;;;;;;1008.87;909.30;;;10.30;99.90;;;;;;6155103;23;20409;-85
2023/11/15 04:21:51;;;;;;;1022.60;922.03;;;10.00;99.90;;;;;;6155345;23;20448;-84
2023/11/15 04:24:20;;;;;;;1008.30;906.30;;;9.90;99.90;;;;;;6154939;23;20413;-86
2023/11/15 04:26:47;;;;;;;1003.37;900.67;;;9.90;99.90;;;;;;6155108;23;20411;-86
2023/11/15 04:29:14;;;;;;;1006.30;904.60;;;9.90;99.90;;;;;;6154734;23;20473;-86
2023/11/15 04:31:41;;;;;;;999.87;900.33;;;9.80;99.90;;;;;;6154852;23;20412;-86
2023/11/15 04:34:07;;;;;;;1013.00;912.50;;;9.80;99.90;;;;;;6155053;23;20520;-85
2023/11/15 04:36:35;;;;;;;1003.93;904.23;;;9.90;99.90;;;;;;6154790;23;20555;-83
2023/11/15 04:39:06;;;;;;;998.70;899.20;;;9.90;99.90;;;;;;6155031;23;20435;-83
2023/11/15 04:41:34;;;;;;;996.83;896.63;;;9.90;99.90;;;;;;6154746;23;20455;-84
2023/11/15 04:44:04;;;;;;;994.23;895.67;;;9.90;99.90;;;;;;6154720;23;20417;-83
2023/11/15 04:46:33;;;;;;;998.63;899.17;;;10.00;99.90;;;;;;6155520;23;20737;-83
2023/11/15 04:49:00;;;;;;;1003.30;903.60;;;9.90;99.90;;;;;;6154440;23;20439;-84
2023/11/15 04:51:27;;;;;;;1003.13;904.63;;;10.00;99.90;;;;;;6155012;23;20419;-79
2023/11/15 04:53:54;;;;;;;1003.37;905.20;;;10.00;99.90;;;;;;6154509;23;20416;-79
2023/11/15 04:56:22;;;;;;;1002.60;903.87;;;10.10;99.90;;;;;;6154649;23;20424;-80
2023/11/15 04:58:52;;;;;;;1002.93;904.13;;;10.10;99.90;;;;;;6154814;23;20948;-78
2023/11/15 05:01:19;;;;;;;1000.00;901.60;;;10.10;99.90;;;;;;6154702;23;20412;-78
2023/11/15 05:03:46;;;;;;;1015.90;916.73;;;10.20;99.90;;;;;;6154953;23;20417;-80
2023/11/15 05:06:13;;;;;;;1022.07;922.07;;;10.20;99.90;;;;;;6154650;23;20907;-80
2023/11/15 05:08:40;;;;;;;1015.30;916.90;;;10.10;99.90;;;;;;6154343;23;20489;-77
2023/11/15 05:11:07;;;;;;;1016.67;917.67;;;10.20;99.90;;;;;;6154945;23;20494;-79
2023/11/15 05:13:34;;;;;;;1019.33;920.80;;;10.20;99.90;;;;;;6154576;23;20498;-79
2023/11/15 05:16:03;;;;;;;1018.67;919.67;;;10.20;99.90;;;;;;6154472;23;20913;-80
2023/11/15 05:18:30;;;;;;;1003.57;903.47;;;10.20;99.90;;;;;;6155095;23;20442;-80
2023/11/15 05:20:58;;;;;;;1002.53;902.77;;;10.20;99.90;;;;;;6154836;23;20496;-79
2023/11/15 05:23:24;;;;;;;1006.80;906.40;;;10.20;99.90;;;;;;6155469;23;20719;-80
2023/11/15 05:25:51;;;;;;;1016.03;915.73;;;10.10;99.90;;;;;;6156598;23;20897;-79
2023/11/15 05:28:20;;;;;;;1011.13;910.27;;;10.20;99.90;;;;;;6156520;23;20435;-80
2023/11/15 05:30:47;;;;;;;1024.10;923.93;;;10.10;99.90;;;;;;6156757;23;20494;-80
2023/11/15 05:33:16;;;;;;;1018.23;916.33;;;10.10;99.90;;;;;;6156490;23;20443;-80
2023/11/15 05:35:42;;;;;;;1018.73;917.60;;;10.00;99.90;;;;;;6156276;23;20438;-80
2023/11/15 05:38:09;;;;;;;1012.93;910.67;;;9.90;99.90;;;;;;6156368;23;20438;-80
2023/11/15 05:40:36;;;;;;;1023.60;922.50;;;9.90;99.90;;;;;;6156638;23;20419;-80
2023/11/15 05:43:03;;;;;;;1030.07;930.40;;;10.00;99.90;;;;;;6156261;23;20443;-79
2023/11/15 05:45:30;;;;;;;1028.13;928.07;;;10.00;99.90;;;;;;6156813;23;20462;-80
2023/11/15 05:47:58;;;;;;;1026.23;925.23;;;10.00;99.90;;;;;;6156353;23;20845;-79
2023/11/15 05:50:26;;;;;;;1034.73;933.53;;;10.00;99.90;;;;;;6156747;23;20415;-80
2023/11/15 05:52:53;;;;;;;1026.40;926.67;;;10.00;99.90;;;;;;6156553;23;20470;-79
2023/11/15 05:55:20;;;;;;;1011.80;912.90;;;10.10;99.90;;;;;;6155911;23;20424;-79
2023/11/15 05:57:48;;;;;;;990.63;893.13;;;10.10;99.90;;;;;;6156453;23;20411;-80
2023/11/15 06:00:20;;;;;;;990.13;891.33;;;10.10;99.90;;;;;;6156230;23;20465;-80
2023/11/15 06:02:48;;;;;;;1004.27;904.07;;;10.00;99.90;;;;;;6156081;23;20399;-79
2023/11/15 06:05:16;;;;;;;998.50;896.93;;;10.00;99.90;;;;;;6156099;23;20410;-80
2023/11/15 06:07:45;;;;;;;984.77;883.23;;;9.90;99.90;;;;;;6156267;23;20889;-80
2023/11/15 06:10:12;;;;;;;987.40;886.30;;;9.80;99.90;;;;;;6156356;23;20740;-79
2023/11/15 06:12:40;;;;;;;982.27;880.93;;;9.70;99.90;;;;;;6156000;23;20414;-80
2023/11/15 06:15:08;;;;;;;984.03;881.77;;;9.70;99.90;;;;;;6156130;23;20464;-80
2023/11/15 06:17:36;;;;;;;986.73;885.93;;;9.60;99.90;;;;;;6156389;23;20410;-79
2023/11/15 06:20:03;;;;;;;984.70;884.70;;;9.80;99.90;;;;;;6156126;23;20410;-77
2023/11/15 06:22:30;;;;;;;995.30;896.30;;;9.90;99.90;;;;;;6156340;23;20419;-80
2023/11/15 06:24:58;;;;;;;986.67;888.30;;;9.90;99.90;;;;;;6155616;23;20410;-77
2023/11/15 06:27:25;;;;;;;986.03;888.73;;;10.00;99.90;;;;;;6155773;23;20822;-80
2023/11/15 06:29:52;;;;;;;987.20;889.97;;;10.10;99.90;;;;;;6156047;23;20838;-80
2023/11/15 06:32:19;;;;;;;1005.07;905.93;;;10.10;99.90;;;;;;6156254;23;20449;-80
2023/11/15 06:34:46;;;;;;;1008.33;909.03;;;10.10;99.90;;;;;;6156074;23;20449;-79
2023/11/15 06:37:14;;;;;;;1009.50;909.70;;;10.00;99.90;;;;;;6155792;23;20418;-80
2023/11/15 06:39:42;;;;;;;1004.37;904.30;;;10.00;99.90;;;;;;6155464;23;20494;-80
2023/11/15 06:42:11;;;;;;;999.57;901.77;;;10.00;99.90;;;;;;6155669;23;20426;-80
2023/11/15 06:44:39;;;;;;;993.10;896.03;;;10.00;99.90;;;;;;6155649;23;20412;-79
2023/11/15 06:47:08;;;;;;;995.27;897.20;;;10.10;99.90;;;;;;6156214;23;20782;-79
2023/11/15 06:49:36;;;;;;;995.20;897.27;;;10.10;99.90;;;;;;6155294;23;20444;-81
2023/11/15 06:52:03;;;;;;;990.00;892.73;;;10.10;99.90;;;;;;6156018;23;20418;-80
2023/11/15 06:54:30;;;;;;;985.50;887.87;;;10.10;99.90;;;;;;6155889;23;20734;-80
2023/11/15 06:56:57;;;;;;;987.90;891.20;;;10.10;99.90;;;;;;6155354;23;20532;-80
2023/11/15 06:59:26;;;;;;;988.00;890.30;;;10.10;99.90;;;;;;6155550;23;20490;-79
2023/11/15 07:01:54;;;;;;;991.70;893.60;;;10.20;99.90;;;;;;6155588;23;20411;-80
2023/11/15 07:04:22;;;;;;;995.73;898.43;;;10.20;99.90;;;;;;6155809;23;20420;-80
2023/11/15 07:06:49;;;;;;;998.13;901.43;;;10.20;99.90;;;;;;6155579;23;20417;-78
2023/11/15 07:09:18;;;;;;;997.40;902.20;;;10.30;99.90;;;;;;6155047;23;20470;-78
2023/11/15 07:11:46;;;;;;;1011.93;913.87;;;10.40;99.90;;;;;;6155505;23;20414;-80
2023/11/15 07:14:14;;;;;;;1031.60;932.70;;;10.30;99.90;;;;;;6154499;23;20693;-81
2023/11/15 07:16:46;;;;;;;1033.20;934.43;;;10.30;99.90;;;;;;6155468;23;20417;-80
2023/11/15 07:19:14;;;;;;;1035.43;939.07;;;10.40;99.90;;;;;;6155211;23;20420;-80
2023/11/15 07:21:41;;;;;;;1044.90;947.50;;;10.30;99.90;;;;;;6155516;23;20464;-79
2023/11/15 07:24:09;;;;;;;1044.70;947.40;;;10.40;99.90;;;;;;6154731;23;20413;-80
2023/11/15 07:26:36;;;;;;;1060.30;961.27;;;10.40;99.90;;;;;;6155089;23;20417;-80
2023/11/15 07:29:04;;;;;;;1066.13;966.70;;;10.40;99.90;;;;;;6154823;23;20468;-79
2023/11/15 07:31:31;;;;;;;1083.00;984.70;;;10.40;99.90;;;;;;6155317;23;20787;-78
2023/11/15 07:34:00;;;;;;;1106.57;999.90;;;10.40;99.90;;;;;;6155545;23;20448;-79
2023/11/15 07:36:29;;;;;;;1118.43;999.90;;;10.40;99.90;;;;;;6155473;23;20417;-79
2023/11/15 07:38:57;;;;;;;1139.10;999.90;;;10.40;99.90;;;;;;6155380;23;20491;-80
2023/11/15 07:41:25;;;;;;;1130.60;999.90;;;10.40;99.90;;;;;;6155088;23;20904;-79
2023/11/15 07:43:54;;;;;;;1143.33;999.90;;;10.40;99.90;;;;;;6155168;23;20420;-78
2023/11/15 07:46:22;;;;;;;1137.33;999.90;;;10.50;99.90;;;;;;6155270;23;20412;-76
2023/11/15 07:48:50;;;;;;;1149.97;999.90;;;10.50;99.90;;;;;;6154752;23;20437;-77
2023/11/15 07:51:19;;;;;;;1158.97;999.90;;;10.50;99.90;;;;;;6153485;23;20412;-77
2023/11/15 07:53:46;;;;;;;1168.67;999.90;;;10.60;99.90;;;;;;6154921;23;20413;-79
2023/11/15 07:56:13;;;;;;;1160.50;999.90;;;10.60;99.90;;;;;;6154731;23;20421;-79
2023/11/15 07:58:40;;;;;;;1166.13;999.90;;;10.70;99.90;;;;;;6154258;23;20966;-78
2023/11/15 08:01:09;;;;;;;1162.33;999.90;;;10.70;99.90;;;;;;6154571;23;20442;-78
2023/11/15 08:03:36;;;;;;;1165.00;999.90;;;10.70;99.90;;;;;;6154915;23;20442;-78
2023/11/15 08:06:03;;;;;;;1167.33;999.90;;;10.80;99.90;;;;;;6154456;23;20451;-77
2023/11/15 08:08:32;;;;;;;1168.47;999.90;;;10.80;99.90;;;;;;6154287;23;20525;-77
2023/11/15 08:10:59;;;;;;;1171.30;999.90;;;10.80;99.90;;;;;;6155025;23;20413;-78
2023/11/15 08:13:26;;;;;;;1167.83;999.90;;;10.80;99.90;;;;;;6154999;23;20910;-77
2023/11/15 08:15:56;;;;;;;1173.77;999.90;;;10.80;99.90;;;;;;6154231;23;20411;-77
2023/11/15 08:18:23;;;;;;;1159.67;999.90;;;10.80;99.90;;;;;;6154526;23;20409;-77
2023/11/15 08:20:50;;;;;;;1166.93;999.90;;;10.80;99.90;;;;;;6154925;23;20413;-77
2023/11/15 08:23:18;;;;;;;1171.70;999.90;;;10.80;99.90;;;;;;6154407;23;20472;-77
2023/11/15 08:25:52;;;;;;;1172.73;999.90;;;10.90;99.90;;;;;;6154881;23;20785;-78
2023/11/15 08:28:19;;;;;;;1171.43;999.90;;;10.90;99.90;;;;;;6154538;23;20451;-77
2023/11/15 08:30:46;;;;;;;1171.10;999.90;;;11.00;99.90;;;;;;6154427;23;20421;-77
2023/11/15 08:33:13;;;;;;;1161.47;999.90;;;11.10;99.90;;;;;;6154268;23;20419;-77
2023/11/15 08:35:40;;;;;;;1162.63;999.90;;;11.10;99.90;;;;;;6154694;23;20492;-77
2023/11/15 08:38:07;;;;;;;1170.53;999.90;;;11.20;99.90;;;;;;6154352;23;20484;-78
2023/11/15 08:40:35;;;;;;;1188.90;999.90;;;11.20;99.90;;;;;;6154310;23;20413;-78
2023/11/15 08:43:03;;;;;;;1181.13;999.90;;;11.30;99.90;;;;;;6154429;23;20441;-75
2023/11/15 08:45:30;;;;;;;1186.17;999.90;;;11.40;99.90;;;;;;6154914;23;20851;-76
2023/11/15 08:47:57;;;;;;;1184.23;999.90;;;11.50;99.90;;;;;;6155114;23;20744;-75
2023/11/15 08:50:25;;;;;;;1191.17;999.90;;;11.50;99.90;;;;;;6155000;23;20421;-76
2023/11/15 08:52:52;;;;;;;1198.33;999.90;;;11.70;99.90;;;;;;6154868;23;20917;-76
2023/11/15 08:55:19;;;;;;;1210.73;999.90;;;11.90;99.90;;;;;;6154933;23;20452;-76
2023/11/15 08:57:46;;;;;;;1204.47;999.90;;;12.00;99.90;;;;;;6155017;23;20414;-76
2023/11/15 09:00:18;;;;;;;1196.70;999.90;;;12.10;99.90;;;;;;6156814;23;20448;-76
2023/11/15 09:02:46;;;;;;;1197.23;999.90;;;12.10;99.90;;;;;;6157463;23;20783;-76
2023/11/15 09:05:14;;;;;;;1194.70;999.90;;;12.00;99.90;;;;;;6156857;23;20957;-76
2023/11/15 09:07:41;;;;;;;1188.37;999.90;;;12.00;99.90;;;;;;6157166;23;20410;-77
2023/11/15 09:10:11;;;;;;;1157.33;999.90;;;12.00;99.90;;;;;;6156903;23;20437;-77
2023/11/15 09:12:39;;;;;;;1167.83;999.90;;;11.90;99.90;;;;;;6157374;23;20410;-77
2023/11/15 09:15:12;;;;;;;1150.03;999.90;;;11.80;99.90;;;;;;6157034;23;20409;-77
2023/11/15 09:17:46;;;;;;;1137.70;999.90;;;11.80;99.90;;;;;;6157171;23;20400;-77
2023/11/15 09:20:17;;;;;;;1145.70;999.90;;;11.80;99.90;;;;;;6156732;23;20881;-76
2023/11/15 09:22:48;;;;;;;1126.10;999.90;;;11.80;99.90;;;;;;6156886;23;20400;-77
2023/11/15 09:25:21;;;;;;;1124.33;999.90;;;11.60;99.90;;;;;;6157130;23;20703;-76
2023/11/15 09:27:49;;;;;;;1121.57;999.90;;;11.70;99.90;;;;;;6156978;23;20394;-77
2023/11/15 09:30:17;;;;;;;1090.50;999.90;;;12.00;99.90;;;;;;6155939;23;20468;-76
2023/11/15 09:32:46;;;;;;;1088.50;999.90;;;12.10;99.90;;;;;;6157135;23;20410;-77
2023/11/15 09:35:13;;;;;;;1082.03;999.90;;;12.20;99.90;;;;;;6156968;23;20509;-77
2023/11/15 09:37:42;;;;;;;1077.43;999.90;;;12.20;99.90;;;;;;6157132;23;20409;-76
2023/11/15 09:40:11;;;;;;;1079.60;999.90;;;12.20;99.90;;;;;;6156603;23;20460;-76
2023/11/15 09:42:42;;;;;;;1074.40;999.90;;;12.20;99.90;;;;;;6157036;23;20409;-76
2023/11/15 09:45:16;;;;;;;1064.37;996.47;;;12.30;99.90;;;;;;6156773;23;20410;-77
2023/11/15 09:47:47;;;;;;;1058.47;991.20;;;12.20;99.90;;;;;;6156887;23;20445;-77
2023/11/15 09:50:17;;;;;;;1056.20;989.50;;;12.20;99.90;;;;;;6156228;23;20429;-75
2023/11/15 09:52:47;;;;;;;1032.43;967.90;;;12.30;99.90;;;;;;6156347;23;20400;-76
2023/11/15 09:55:13;;;;;;;1038.60;974.70;;;12.40;99.90;;;;;;6156224;23;20421;-75
2023/11/15 09:57:41;;;;;;;964.77;908.47;;;12.60;99.90;;;;;;6156704;23;20426;-75
2023/11/15 10:00:11;;;;;;;930.30;875.80;;;12.50;99.90;;;;;;6156593;23;20409;-75
2023/11/15 10:02:40;;;;;;;868.90;817.50;;;12.40;99.90;;;;;;6156356;23;20409;-76
2023/11/15 10:05:20;;;;;;;864.13;813.53;;;12.30;99.90;;;;;;6156362;23;20493;-76
2023/11/15 10:07:48;;;;;;;865.90;815.00;;;12.10;99.90;;;;;;6156575;23;20728;-75
2023/11/15 10:10:21;;;;;;;872.43;821.10;;;12.10;99.90;;;;;;6156470;23;20437;-76
2023/11/15 10:12:50;;;;;;;829.20;780.83;;;12.30;99.90;;;;;;6156717;23;20394;-76
2023/11/15 10:15:19;;;;;;;833.30;785.53;;;12.40;99.90;;;;;;6156223;23;20410;-75
2023/11/15 10:17:48;;;;;;;780.87;737.37;;;12.40;99.90;;;;;;6156408;23;20432;-75
2023/11/15 10:20:22;;;;;;;727.97;687.87;;;12.30;99.90;;;;;;6156441;23;20412;-76
2023/11/15 10:22:52;;;;;;;697.90;660.67;;;12.20;99.90;;;;;;6156133;23;20851;-75
2023/11/15 10:25:19;;;;;;;684.93;648.97;;;12.40;99.90;;;;;;6156374;23;20411;-76
2023/11/15 10:27:46;;;;;;;684.07;649.37;;;12.40;99.90;;;;;;6155998;23;20414;-75
2023/11/15 10:30:16;;;;;;;684.60;649.00;;;12.30;99.90;;;;;;6155886;23;20979;-76
2023/11/15 10:32:44;;;;;;;666.97;633.07;;;12.50;99.90;;;;;;6156167;23;20496;-76
2023/11/15 10:35:11;;;;;;;682.60;647.70;;;12.50;99.90;;;;;;6155926;23;20931;-75
2023/11/15 10:37:49;;;;;;;676.10;641.80;;;12.70;99.90;;;;;;6156469;23;20417;-75
2023/11/15 10:40:18;;;;;;;659.50;626.97;;;12.90;99.90;;;;;;6156376;23;20397;-75
2023/11/15 10:42:49;;;;;;;636.43;605.13;;;12.90;99.90;;;;;;6155986;23;20410;-75
2023/11/15 10:45:17;;;;;;;639.07;607.47;;;12.70;99.90;;;;;;6156297;23;20797;-75
2023/11/15 10:47:53;;;;;;;612.73;582.93;;;12.70;99.90;;;;;;6155930;23;20492;-76
2023/11/15 10:50:23;;;;;;;604.03;575.43;;;12.60;99.90;;;;;;6156258;23;20454;-75
2023/11/15 10:52:52;;;;;;;602.10;573.60;;;12.40;99.90;;;;;;6155952;23;20410;-75
2023/11/15 10:55:20;;;;;;;590.40;562.73;;;12.50;99.90;;;;;;6155775;23;20921;-75
2023/11/15 10:57:47;;;;;;;579.07;551.97;;;12.60;99.90;;;;;;6155795;23;20437;-75
2023/11/15 11:00:19;;;;;;;560.00;534.30;;;12.70;99.90;;;;;;6156264;23;20801;-74
2023/11/15 11:02:49;;;;;;;550.50;525.33;;;12.70;99.90;;;;;;6156284;23;20452;-76
2023/11/15 11:05:29;;;;;;;533.03;509.13;;;12.70;99.90;;;;;;6155822;23;20416;-75
2023/11/15 11:08:05;;;;;;;539.73;515.73;;;12.80;99.90;;;;;;6156047;23;20394;-74
2023/11/15 11:10:38;;;;;;;498.17;476.47;;;13.20;99.90;;;;;;6156125;23;20429;-74
2023/11/15 11:13:18;;;;;;;493.90;472.30;;;13.30;99.90;;;;;;6156091;23;20394;-75
2023/11/15 11:15:45;;;;;;;492.07;470.70;;;13.20;99.90;;;;;;6156146;23;20510;-75
2023/11/15 11:18:15;;;;;;;422.33;405.03;;;13.40;99.90;;;;;;6155282;23;20441;-75
2023/11/15 11:20:54;;;;;;;407.90;391.40;;;13.80;99.90;;;;;;6155695;23;20390;-75
2023/11/15 11:23:23;;;;;;;412.80;396.17;;;14.20;99.40;;;;;;6156119;23;20457;-74
2023/11/15 11:25:52;;;;;;;435.60;417.90;;;14.50;99.40;;;;;;6155297;23;20497;-74
2023/11/15 11:28:20;;;;;;;443.80;425.80;;;14.60;98.30;;;;;;6154388;23;20414;-73
2023/11/15 11:31:17;;;;;;;416.80;400.40;;;14.60;97.40;;;;;;6155290;23;20446;-74
2023/11/15 11:34:08;;;;;;;410.47;394.77;;;14.80;95.20;;;;;;6155763;23;20398;-73
2023/11/15 11:36:54;;;;;;;363.63;350.43;;;15.50;94.90;;;;;;6155503;23;20397;-73
2023/11/15 11:39:24;;;;;;;366.10;353.03;;;15.10;93.10;;;;;;6155431;23;20394;-73
2023/11/15 11:41:51;;;;;;;311.60;301.23;;;14.40;92.80;;;;;;6155338;23;20409;-72
2023/11/15 11:44:19;;;;;;;256.43;248.47;;;13.60;92.50;;;;;;6155453;23;20409;-72
2023/11/15 11:47:02;;;;;;;188.83;182.87;;;13.30;96.10;;;;;;6153820;23;20413;-72
2023/11/15 11:49:45;;;;;;;155.50;150.40;;;12.90;97.40;;;;;;6154172;23;20429;-72
2023/11/15 11:52:14;;;;;;;124.00;119.90;;;13.00;98.90;;;;;;6155086;23;20408;-72
2023/11/15 11:54:44;;;;;;;115.63;111.80;;;13.20;98.90;;;;;;6154244;23;20758;-72
2023/11/15 11:57:10;;;;;;;110.90;107.20;;;13.20;99.00;;;;;;6154567;23;20442;-71
2023/11/15 11:59:37;;;;;;;105.93;102.33;;;13.10;98.90;;;;;;6152888;23;20485;-71
2023/11/15 12:02:04;;;;;;;97.20;93.90;;;13.00;98.80;;;;;;6154478;23;20410;-71
2023/11/15 12:04:43;;;;;;;94.23;91.03;;;13.00;98.80;;;;;;6154268;23;20776;-72
2023/11/15 12:07:11;;;;;;;87.87;84.87;;;13.00;98.80;;;;;;6154346;23;20389;-71
2023/11/15 12:09:41;;;;;;;77.23;74.53;;;13.50;99.00;;;;;;6153671;23;20413;-72